createdAt,value
2018-12-19T00:00:46.179Z,14.13
2018-12-19T00:03:15.001Z,14.65
2018-12-19T00:05:43.777Z,13.65
2018-12-19T00:08:12.564Z,13.90
2018-12-19T00:10:41.386Z,16.70
2018-12-19T00:13:14.328Z,16.52
2018-12-19T00:15:43.204Z,15.45
2018-12-19T00:18:11.979Z,13.80
2018-12-19T00:20:41.731Z,14.00
2018-12-19T00:23:10.598Z,15.28
2018-12-19T00:25:39.428Z,15.65
2018-12-19T00:28:08.215Z,14.18
2018-12-19T00:30:37.038Z,13.43
2018-12-19T00:33:05.872Z,16.07
2018-12-19T00:35:34.722Z,14.28
2018-12-19T00:38:03.535Z,13.98
2018-12-19T00:40:32.410Z,15.70
2018-12-19T00:43:02.077Z,18.67
2018-12-19T00:45:30.899Z,14.25
2018-12-19T00:47:59.767Z,12.65
2018-12-19T00:50:28.659Z,14.63
2018-12-19T00:52:57.439Z,12.00
2018-12-19T00:55:26.344Z,12.55
2018-12-19T00:57:55.170Z,13.35
2018-12-19T01:00:24.065Z,13.58
2018-12-19T01:02:53.027Z,16.02
2018-12-19T01:05:21.910Z,14.53
2018-12-19T01:07:50.773Z,15.15
2018-12-19T01:10:19.502Z,15.03
2018-12-19T01:12:48.365Z,13.53
2018-12-19T01:15:17.158Z,14.85
2018-12-19T01:17:46.082Z,13.18
2018-12-19T01:20:14.983Z,14.75
2018-12-19T01:22:43.880Z,12.93
2018-12-19T01:25:12.706Z,13.75
2018-12-19T01:27:41.528Z,15.32
2018-12-19T01:30:10.456Z,14.13
2018-12-19T01:32:39.251Z,16.17
2018-12-19T01:35:08.154Z,13.55
2018-12-19T01:37:36.942Z,14.68
2018-12-19T01:40:06.165Z,13.65
2018-12-19T01:42:34.986Z,14.90
2018-12-19T01:45:04.052Z,12.95
2018-12-19T01:47:32.867Z,14.77
2018-12-19T01:50:01.650Z,13.50
2018-12-19T01:52:30.465Z,14.78
2018-12-19T01:54:59.261Z,13.93
2018-12-19T01:57:28.013Z,12.33
2018-12-19T01:59:56.828Z,12.82
2018-12-19T02:02:25.573Z,15.70
2018-12-19T02:04:54.550Z,15.75
2018-12-19T02:07:23.427Z,13.25
2018-12-19T02:09:52.195Z,14.45
2018-12-19T02:12:21.012Z,14.30
2018-12-19T02:14:49.836Z,13.53
2018-12-19T02:17:18.600Z,14.50
2018-12-19T02:19:47.465Z,14.67
2018-12-19T02:22:16.222Z,16.90
2018-12-19T02:24:45.134Z,14.60
2018-12-19T02:27:13.844Z,14.90
2018-12-19T02:29:42.575Z,14.50
2018-12-19T02:32:11.385Z,14.45
2018-12-19T02:34:40.262Z,15.05
2018-12-19T02:37:09.103Z,15.85
2018-12-19T02:39:37.875Z,15.08
2018-12-19T02:42:07.334Z,15.70
2018-12-19T02:44:36.235Z,17.80
2018-12-19T02:47:05.025Z,15.40
2018-12-19T02:49:33.885Z,13.50
2018-12-19T02:52:02.715Z,15.37
2018-12-19T02:54:31.506Z,14.97
2018-12-19T02:57:00.275Z,14.28
2018-12-19T02:59:29.055Z,15.40
2018-12-19T03:01:57.889Z,17.33
2018-12-19T03:04:26.645Z,17.85
2018-12-19T03:06:55.449Z,18.17
2018-12-19T03:09:24.174Z,16.27
2018-12-19T03:11:52.979Z,15.00
2018-12-19T03:14:21.775Z,13.97
2018-12-19T03:16:50.609Z,15.15
2018-12-19T03:19:19.387Z,14.38
2018-12-19T03:21:48.160Z,14.35
2018-12-19T03:24:16.997Z,15.80
2018-12-19T03:26:45.888Z,13.15
2018-12-19T03:29:14.656Z,15.17
2018-12-19T03:31:43.458Z,13.48
2018-12-19T03:34:12.249Z,12.45
2018-12-19T03:36:41.100Z,14.20
2018-12-19T03:39:09.898Z,14.45
2018-12-19T03:41:38.896Z,12.40
2018-12-19T03:44:07.684Z,14.43
2018-12-19T03:46:37.282Z,14.00
2018-12-19T03:49:06.100Z,13.67
2018-12-19T03:51:34.909Z,14.87
2018-12-19T03:54:03.661Z,16.48
2018-12-19T03:56:32.520Z,16.05
2018-12-19T03:59:01.345Z,16.75
2018-12-19T04:01:30.080Z,16.30
2018-12-19T04:03:58.868Z,15.67
2018-12-19T04:06:27.720Z,15.80
2018-12-19T04:08:56.547Z,16.52
2018-12-19T04:11:25.385Z,14.98
2018-12-19T04:13:54.241Z,15.90
2018-12-19T04:16:23.097Z,16.93
2018-12-19T04:18:51.933Z,12.97
2018-12-19T04:21:20.670Z,24.30
2018-12-19T04:23:49.384Z,17.37
2018-12-19T04:26:18.246Z,14.98
2018-12-19T04:28:47.184Z,16.93
2018-12-19T04:31:15.952Z,15.53
2018-12-19T04:33:44.859Z,14.00
2018-12-19T04:36:13.617Z,14.03
2018-12-19T04:38:42.648Z,12.70
2018-12-19T04:41:11.380Z,14.40
2018-12-19T04:43:40.198Z,12.80
2018-12-19T04:46:08.937Z,12.93
2018-12-19T04:48:37.717Z,14.45
2018-12-19T04:51:06.483Z,12.47
2018-12-19T04:53:35.266Z,10.53
2018-12-19T04:56:04.036Z,12.03
2018-12-19T04:58:32.828Z,11.00
2018-12-19T05:01:01.500Z,12.60
2018-12-19T05:03:30.283Z,11.63
2018-12-19T05:05:59.074Z,10.37
2018-12-19T05:08:27.817Z,11.13
2018-12-19T05:10:56.670Z,10.47
2018-12-19T05:13:25.392Z,12.23
2018-12-19T05:15:54.146Z,10.10
2018-12-19T05:18:22.923Z,10.53
2018-12-19T05:20:51.631Z,8.50
2018-12-19T05:23:20.302Z,11.80
2018-12-19T05:25:49.083Z,10.27
2018-12-19T05:28:17.846Z,10.27
2018-12-19T05:30:46.581Z,10.73
2018-12-19T05:33:15.442Z,9.93
2018-12-19T05:35:44.309Z,13.47
2018-12-19T05:38:13.023Z,12.27
2018-12-19T05:40:41.887Z,16.77
2018-12-19T05:43:10.667Z,13.53
2018-12-19T05:45:39.563Z,13.98
2018-12-19T05:48:08.401Z,22.23
2018-12-19T05:50:37.171Z,20.90
2018-12-19T05:53:07.749Z,20.70
2018-12-19T05:55:36.499Z,12.43
2018-12-19T05:58:05.210Z,17.12
2018-12-19T06:00:33.975Z,15.95
2018-12-19T06:03:02.812Z,9.73
2018-12-19T06:05:31.534Z,9.40
2018-12-19T06:08:01.162Z,10.58
2018-12-19T06:10:29.946Z,10.30
2018-12-19T06:12:58.954Z,9.45
2018-12-19T06:15:29.699Z,10.80
2018-12-19T06:17:59.012Z,8.78
2018-12-19T06:20:43.875Z,9.28
2018-12-19T06:23:23.371Z,9.80
2018-12-19T06:25:52.395Z,8.65
2018-12-19T06:28:21.183Z,9.48
2018-12-19T06:30:49.973Z,9.40
2018-12-19T06:33:18.642Z,8.40
2018-12-19T06:35:47.360Z,9.83
2018-12-19T06:38:16.062Z,9.65
2018-12-19T06:40:44.738Z,7.70
2018-12-19T06:43:13.524Z,9.30
2018-12-19T06:45:42.143Z,9.80
2018-12-19T06:48:11.071Z,10.00
2018-12-19T06:50:40.097Z,11.05
2018-12-19T06:53:08.867Z,11.12
2018-12-19T06:55:37.563Z,11.00
2018-12-19T06:58:07.220Z,10.48
2018-12-19T07:00:36.272Z,10.80
2018-12-19T07:03:04.981Z,10.00
2018-12-19T07:05:33.737Z,8.43
2018-12-19T07:08:02.609Z,10.23
2018-12-19T07:10:31.402Z,9.67
2018-12-19T07:13:00.268Z,9.43
2018-12-19T07:15:29.127Z,10.23
2018-12-19T07:17:58.075Z,9.77
2018-12-19T07:20:26.857Z,18.07
2018-12-19T07:22:56.064Z,13.90
2018-12-19T07:25:25.141Z,13.28
2018-12-19T07:27:53.972Z,11.23
2018-12-19T07:30:24.390Z,10.13
2018-12-19T07:32:53.202Z,10.40
2018-12-19T07:35:23.270Z,13.90
2018-12-19T07:37:53.296Z,13.98
2018-12-19T07:40:27.048Z,10.80
2018-12-19T07:42:55.870Z,9.80
2018-12-19T07:45:24.650Z,10.30
2018-12-19T07:47:53.407Z,9.40
2018-12-19T07:50:34.379Z,9.15
2018-12-19T07:56:00.859Z,9.83
2018-12-19T08:01:50.608Z,9.90
2018-12-19T08:04:20.805Z,10.53
2018-12-19T08:06:52.451Z,10.15
2018-12-19T08:09:27.451Z,10.90
2018-12-19T08:11:58.680Z,12.30
2018-12-19T08:14:31.425Z,13.65
2018-12-19T08:17:07.194Z,11.60
2018-12-19T08:19:40.370Z,11.55
2018-12-19T08:22:10.148Z,11.77
2018-12-19T08:24:42.018Z,12.00
2018-12-19T08:27:13.189Z,9.80
2018-12-19T08:29:45.196Z,11.63
2018-12-19T08:32:17.822Z,12.63
2018-12-19T08:34:47.296Z,11.03
2018-12-19T08:37:16.848Z,11.70
2018-12-19T08:39:52.016Z,10.80
2018-12-19T08:42:27.900Z,10.30
2018-12-19T08:45:04.460Z,10.53
2018-12-19T08:47:35.169Z,13.20
2018-12-19T08:50:06.461Z,12.37
2018-12-19T08:55:23.609Z,12.90
2018-12-19T08:58:02.877Z,10.78
2018-12-19T09:00:32.811Z,10.50
2018-12-19T09:03:06.385Z,8.83
2018-12-19T09:05:46.509Z,10.70
2018-12-19T09:08:19.311Z,10.67
2018-12-19T09:10:50.314Z,9.50
2018-12-19T09:13:29.432Z,10.30
2018-12-19T09:16:07.176Z,11.97
2018-12-19T09:18:47.448Z,12.70
2018-12-19T09:21:30.173Z,11.77
2018-12-19T09:24:03.114Z,11.40
2018-12-19T09:26:42.150Z,10.93
2018-12-19T09:29:20.178Z,10.50
2018-12-19T09:31:55.583Z,9.60
2018-12-19T09:34:30.761Z,10.58
2018-12-19T09:37:10.960Z,10.70
2018-12-19T09:39:39.903Z,11.37
2018-12-19T09:42:26.650Z,13.03
2018-12-19T09:45:01.182Z,10.50
2018-12-19T09:47:36.382Z,14.57
2018-12-19T09:50:12.810Z,15.93
2018-12-19T09:52:48.459Z,15.13
2018-12-19T09:55:26.240Z,15.70
2018-12-19T10:00:57.226Z,18.07
2018-12-19T10:03:35.927Z,13.40
2018-12-19T10:06:24.065Z,17.70
2018-12-19T10:09:15.000Z,12.43
2018-12-19T10:12:00.173Z,12.23
2018-12-19T10:14:39.856Z,12.80
2018-12-19T10:17:30.169Z,11.17
2018-12-19T10:20:19.998Z,11.50
2018-12-19T10:23:06.074Z,11.33
2018-12-19T10:25:34.932Z,10.70
2018-12-19T10:28:14.187Z,12.67
2018-12-19T10:30:48.114Z,11.70
2018-12-19T10:33:17.079Z,13.20
2018-12-19T10:35:46.021Z,13.97
2018-12-19T10:38:15.706Z,12.37
2018-12-19T10:40:45.675Z,11.93
2018-12-19T10:43:14.646Z,15.33
2018-12-19T10:45:44.756Z,14.50
2018-12-19T10:48:13.588Z,12.97
2018-12-19T10:50:43.698Z,14.70
2018-12-19T10:53:12.569Z,12.40
2018-12-19T10:55:42.352Z,14.90
2018-12-19T10:58:11.171Z,12.77
2018-12-19T11:00:45.141Z,13.17
2018-12-19T11:03:14.026Z,15.33
2018-12-19T11:05:43.078Z,14.80
2018-12-19T11:08:11.960Z,12.23
2018-12-19T11:10:40.793Z,15.40
2018-12-19T11:13:09.658Z,12.30
2018-12-19T11:15:38.562Z,21.40
2018-12-19T11:18:07.426Z,20.03
2018-12-19T11:20:36.300Z,15.90
2018-12-19T11:23:05.269Z,13.10
2018-12-19T11:25:34.211Z,13.90
2018-12-19T11:28:04.078Z,13.23
2018-12-19T11:30:36.806Z,11.80
2018-12-19T11:33:05.982Z,12.90
2018-12-19T11:35:35.066Z,11.03
2018-12-19T11:38:09.795Z,11.63
2018-12-19T11:40:39.782Z,12.07
2018-12-19T11:43:09.054Z,15.20
2018-12-19T11:45:39.254Z,11.07
2018-12-19T11:48:11.083Z,12.23
2018-12-19T11:50:42.819Z,12.70
2018-12-19T11:53:13.283Z,12.87
2018-12-19T11:55:42.358Z,15.50
2018-12-19T11:58:11.531Z,10.83
2018-12-19T12:00:44.645Z,14.70
2018-12-19T12:03:18.798Z,11.70
2018-12-19T12:05:50.581Z,15.07
2018-12-19T12:08:21.302Z,38.63
2018-12-19T12:10:51.153Z,16.97
2018-12-19T12:13:22.792Z,16.33
2018-12-19T12:15:53.907Z,15.67
2018-12-19T12:18:23.073Z,14.10
2018-12-19T12:20:56.398Z,20.43
2018-12-19T12:23:28.289Z,25.87
2018-12-19T12:26:01.613Z,30.83
2018-12-19T12:28:32.785Z,31.47
2018-12-19T12:31:02.131Z,40.23
2018-12-19T12:33:36.466Z,34.23
2018-12-19T12:36:06.501Z,32.10
2018-12-19T12:38:38.380Z,37.87
2018-12-19T12:41:13.343Z,20.10
2018-12-19T12:43:44.882Z,15.27
2018-12-19T12:46:15.153Z,18.00
2018-12-19T12:48:44.283Z,47.87
2018-12-19T12:51:13.208Z,23.93
2018-12-19T12:53:42.197Z,21.37
2018-12-19T12:56:11.159Z,20.83
2018-12-19T12:58:40.179Z,25.87
2018-12-19T13:01:10.176Z,22.37
2018-12-19T13:03:39.222Z,17.03
2018-12-19T13:06:08.254Z,15.40
2018-12-19T13:08:37.244Z,14.20
2018-12-19T13:11:08.969Z,12.53
2018-12-19T13:13:38.555Z,13.90
2018-12-19T13:16:09.429Z,14.00
2018-12-19T13:18:38.427Z,12.97
2018-12-19T13:21:08.500Z,12.40
2018-12-19T13:23:38.836Z,12.53
2018-12-19T13:28:59.221Z,15.50
2018-12-19T13:31:31.266Z,18.00
2018-12-19T13:34:00.856Z,16.23
2018-12-19T13:36:29.822Z,17.30
2018-12-19T13:38:58.529Z,15.80
2018-12-19T13:41:27.438Z,15.07
2018-12-19T13:43:56.466Z,13.33
2018-12-19T13:46:25.366Z,14.47
2018-12-19T13:48:54.279Z,15.40
2018-12-19T13:51:23.156Z,12.77
2018-12-19T13:53:52.957Z,20.40
2018-12-19T13:56:21.852Z,15.90
2018-12-19T13:58:51.182Z,15.20
2018-12-19T14:01:20.896Z,16.70
2018-12-19T14:03:49.901Z,18.27
2018-12-19T14:06:18.787Z,14.47
2018-12-19T14:08:47.787Z,12.53
2018-12-19T14:11:16.687Z,29.03
2018-12-19T14:13:45.566Z,19.40
2018-12-19T14:16:14.556Z,17.80
2018-12-19T14:18:43.494Z,20.30
2018-12-19T14:21:12.928Z,15.00
2018-12-19T14:23:43.039Z,17.47
2018-12-19T14:26:11.941Z,16.10
2018-12-19T14:28:40.850Z,14.33
2018-12-19T14:31:09.646Z,14.10
2018-12-19T14:33:41.461Z,15.37
2018-12-19T14:36:10.512Z,14.73
2018-12-19T14:38:39.982Z,18.03
2018-12-19T14:41:08.946Z,16.90
2018-12-19T14:43:38.461Z,19.30
2018-12-19T14:46:07.365Z,18.10
2018-12-19T14:48:38.169Z,23.93
2018-12-19T14:51:06.986Z,15.07
2018-12-19T14:53:35.756Z,13.53
2018-12-19T14:56:04.552Z,16.47
2018-12-19T14:58:33.585Z,13.90
2018-12-19T15:01:02.318Z,12.57
2018-12-19T15:03:31.296Z,10.83
2018-12-19T15:06:00.173Z,13.37
2018-12-19T15:08:28.906Z,17.30
2018-12-19T15:10:57.851Z,27.30
2018-12-19T15:13:26.926Z,19.10
2018-12-19T15:16:00.847Z,16.57
2018-12-19T15:18:30.109Z,16.57
2018-12-19T15:20:58.811Z,14.53
2018-12-19T15:23:27.740Z,16.30
2018-12-19T15:25:56.688Z,14.30
2018-12-19T15:28:25.464Z,16.30
2018-12-19T15:30:54.327Z,18.10
2018-12-19T15:33:23.262Z,14.03
2018-12-19T15:35:52.053Z,14.33
2018-12-19T15:38:20.946Z,13.10
2018-12-19T15:40:49.737Z,14.00
2018-12-19T15:43:18.541Z,15.80
2018-12-19T15:45:47.505Z,14.33
2018-12-19T15:48:16.327Z,14.10
2018-12-19T15:50:45.262Z,13.20
2018-12-19T15:53:14.764Z,12.83
2018-12-19T15:58:47.635Z,10.17
2018-12-19T16:01:16.414Z,10.73
2018-12-19T16:03:45.278Z,11.40
2018-12-19T16:06:14.178Z,13.77
2018-12-19T16:08:43.174Z,16.03
2018-12-19T16:11:11.862Z,14.93
2018-12-19T16:13:40.916Z,12.10
2018-12-19T16:16:09.854Z,17.10
2018-12-19T16:18:38.949Z,10.30
2018-12-19T16:21:07.806Z,13.30
2018-12-19T16:23:37.100Z,12.80
2018-12-19T16:26:05.891Z,12.23
2018-12-19T16:28:34.753Z,12.50
2018-12-19T16:31:03.741Z,11.43
2018-12-19T16:33:32.963Z,14.53
2018-12-19T16:36:02.009Z,9.87
2018-12-19T16:38:31.088Z,11.80
2018-12-19T16:41:00.255Z,14.23
2018-12-19T16:43:30.357Z,11.97
2018-12-19T16:46:00.447Z,15.60
2018-12-19T16:48:29.400Z,15.87
2018-12-19T16:50:58.395Z,17.20
2018-12-19T16:53:27.327Z,15.33
2018-12-19T16:55:56.300Z,16.70
2018-12-19T16:58:25.233Z,13.70
2018-12-19T17:00:54.148Z,12.60
2018-12-19T17:03:22.963Z,21.30
2018-12-19T17:05:51.859Z,17.07
2018-12-19T17:08:20.721Z,16.50
2018-12-19T17:10:49.539Z,15.33
2018-12-19T17:13:18.395Z,14.37
2018-12-19T17:15:47.304Z,16.13
2018-12-19T17:18:16.220Z,14.97
2018-12-19T17:20:45.588Z,15.50
2018-12-19T17:23:14.568Z,14.80
2018-12-19T17:25:43.299Z,11.87
2018-12-19T17:28:13.323Z,16.10
2018-12-19T17:30:42.154Z,17.07
2018-12-19T17:33:11.588Z,14.60
2018-12-19T17:35:44.226Z,14.73
2018-12-19T17:38:19.464Z,14.13
2018-12-19T17:40:50.497Z,14.33
2018-12-19T17:43:34.939Z,15.07
2018-12-19T17:49:04.475Z,14.07
2018-12-19T17:51:40.130Z,17.17
2018-12-19T17:54:09.545Z,14.77
2018-12-19T17:59:55.274Z,10.63
2018-12-19T18:02:24.364Z,12.50
2018-12-19T18:04:59.931Z,12.93
2018-12-19T18:07:36.407Z,15.20
2018-12-19T18:10:05.451Z,17.97
2018-12-19T18:12:34.435Z,14.20
2018-12-19T18:15:10.123Z,15.40
2018-12-19T18:17:40.088Z,13.83
2018-12-19T18:20:09.040Z,14.20
2018-12-19T18:22:39.767Z,12.30
2018-12-19T18:25:09.540Z,13.07
2018-12-19T18:27:40.968Z,18.13
2018-12-19T18:30:10.554Z,16.13
2018-12-19T18:32:42.939Z,24.10
2018-12-19T18:35:14.240Z,15.33
2018-12-19T18:37:44.075Z,17.77
2018-12-19T18:40:12.987Z,19.43
2018-12-19T18:42:43.987Z,14.20
2018-12-19T18:45:13.794Z,17.70
2018-12-19T18:47:43.052Z,15.73
2018-12-19T18:50:13.581Z,17.93
2018-12-19T18:52:45.405Z,15.13
2018-12-19T18:55:15.990Z,13.60
2018-12-19T18:57:46.444Z,16.87
2018-12-19T19:00:25.578Z,16.57
2018-12-19T19:03:02.523Z,15.80
2018-12-19T19:05:33.818Z,13.30
2018-12-19T19:08:04.517Z,15.60
2018-12-19T19:10:37.235Z,18.53
2018-12-19T19:13:06.381Z,22.10
2018-12-19T19:15:35.510Z,15.70
2018-12-19T19:21:02.394Z,17.00
2018-12-19T19:23:39.521Z,16.20
2018-12-19T19:26:12.565Z,15.30
2018-12-19T19:28:43.708Z,20.77
2018-12-19T19:31:13.864Z,17.00
2018-12-19T19:33:43.498Z,16.93
2018-12-19T19:36:15.028Z,15.77
2018-12-19T19:38:44.968Z,16.73
2018-12-19T19:41:35.090Z,41.40
2018-12-19T19:44:05.377Z,16.77
2018-12-19T19:46:45.524Z,33.63
2018-12-19T19:49:16.636Z,22.83
2018-12-19T19:51:45.398Z,17.97
2018-12-19T19:54:21.506Z,16.77
2018-12-19T19:56:55.069Z,30.35
2018-12-19T19:59:26.920Z,15.80
2018-12-19T20:01:58.480Z,24.10
2018-12-19T20:04:28.410Z,14.17
2018-12-19T20:07:01.106Z,21.90
2018-12-19T20:09:36.707Z,16.50
2018-12-19T20:12:05.727Z,11.23
2018-12-19T20:14:35.632Z,11.50
2018-12-19T20:17:04.821Z,11.13
2018-12-19T20:19:36.437Z,9.83
2018-12-19T20:22:05.929Z,10.60
2018-12-19T20:24:38.615Z,7.60
2018-12-19T20:27:07.884Z,9.37
2018-12-19T20:29:40.456Z,8.67
2018-12-19T20:32:11.047Z,5.97
2018-12-19T20:34:40.095Z,7.20
2018-12-19T20:37:09.300Z,7.17
2018-12-19T20:39:38.203Z,5.27
2018-12-19T20:42:07.099Z,7.47
2018-12-19T20:44:36.780Z,6.57
2018-12-19T20:47:05.778Z,7.83
2018-12-19T20:49:34.809Z,6.63
2018-12-19T20:52:03.874Z,6.90
2018-12-19T20:54:32.958Z,8.37
2018-12-19T20:57:01.899Z,6.90
2018-12-19T20:59:31.010Z,6.30
2018-12-19T21:02:18.261Z,7.60
2018-12-19T21:04:49.275Z,6.60
2018-12-19T21:07:20.318Z,8.27
2018-12-19T21:09:51.238Z,6.80
2018-12-19T21:12:20.091Z,5.77
2018-12-19T21:14:49.124Z,5.83
2018-12-19T21:20:51.090Z,8.47
2018-12-19T21:23:43.066Z,7.30
2018-12-19T21:26:26.732Z,9.00
2018-12-19T21:28:55.605Z,12.10
2018-12-19T21:40:08.027Z,12.47
2018-12-19T21:43:00.425Z,17.63
2018-12-19T21:45:42.010Z,7.23
2018-12-19T21:51:19.169Z,9.00
2018-12-19T21:54:16.949Z,9.87
2018-12-19T21:56:58.175Z,10.37
2018-12-19T21:59:39.730Z,11.07
2018-12-19T22:02:14.339Z,16.57
2018-12-19T22:04:43.283Z,8.93
2018-12-19T22:07:12.153Z,8.97
2018-12-19T22:09:41.798Z,9.03
2018-12-19T22:12:10.803Z,8.17
2018-12-19T22:14:39.649Z,8.90
2018-12-19T23:30:15.007Z,10.80
2018-12-19T23:34:12.173Z,9.20
